地図

経路データ

SID SEASON NUMBER BASIN SUBBASIN NAME ISO_TIME NATURE LAT LON WMO_WIND WMO_PRES WMO_AGENCY TRACK_TYPE DIST2LAND LANDFALL IFLAG USA_AGENCY USA_ATCF_ID USA_LAT USA_LON USA_RECORD USA_STATUS USA_WIND USA_PRES USA_SSHS USA_R34_NE USA_R34_SE USA_R34_SW USA_R34_NW USA_R50_NE USA_R50_SE USA_R50_SW USA_R50_NW USA_R64_NE USA_R64_SE USA_R64_SW USA_R64_NW USA_POCI USA_ROCI USA_RMW USA_EYE TOKYO_LAT TOKYO_LON TOKYO_GRADE TOKYO_WIND TOKYO_PRES TOKYO_R50_DIR TOKYO_R50_LONG TOKYO_R50_SHORT TOKYO_R30_DIR TOKYO_R30_LONG TOKYO_R30_SHORT TOKYO_LAND CMA_LAT CMA_LON CMA_CAT CMA_WIND CMA_PRES HKO_LAT HKO_LON HKO_CAT HKO_WIND HKO_PRES NEWDELHI_LAT NEWDELHI_LON NEWDELHI_GRADE NEWDELHI_WIND NEWDELHI_PRES NEWDELHI_CI NEWDELHI_DP NEWDELHI_POCI REUNION_LAT REUNION_LON REUNION_TYPE REUNION_WIND REUNION_PRES REUNION_TNUM REUNION_CI REUNION_RMW REUNION_R34_NE REUNION_R34_SE REUNION_R34_SW REUNION_R34_NW REUNION_R50_NE REUNION_R50_SE REUNION_R50_SW REUNION_R50_NW REUNION_R64_NE REUNION_R64_SE REUNION_R64_SW REUNION_R64_NW BOM_LAT BOM_LON BOM_TYPE BOM_WIND BOM_PRES BOM_TNUM BOM_CI BOM_RMW BOM_R34_NE BOM_R34_SE BOM_R34_SW BOM_R34_NW BOM_R50_NE BOM_R50_SE BOM_R50_SW BOM_R50_NW BOM_R64_NE BOM_R64_SE BOM_R64_SW BOM_R64_NW BOM_ROCI BOM_POCI BOM_EYE BOM_POS_METHOD BOM_PRES_METHOD NADI_LAT NADI_LON NADI_CAT NADI_WIND NADI_PRES WELLINGTON_LAT WELLINGTON_LON WELLINGTON_WIND WELLINGTON_PRES DS824_LAT DS824_LON DS824_STAGE DS824_WIND DS824_PRES TD9636_LAT TD9636_LON TD9636_STAGE TD9636_WIND TD9636_PRES TD9635_LAT TD9635_LON TD9635_WIND TD9635_PRES TD9635_ROCI NEUMANN_LAT NEUMANN_LON NEUMANN_CLASS NEUMANN_WIND NEUMANN_PRES MLC_LAT MLC_LON MLC_CLASS MLC_WIND MLC_PRES USA_GUST BOM_GUST BOM_GUST_PER REUNION_GUST REUNION_GUST_PER USA_SEAHGT USA_SEARAD_NE USA_SEARAD_SE USA_SEARAD_SW USA_SEARAD_NW STORM_SPEED STORM_DIR
1899299N16281 1899 43 NA CS NOT_NAMED 1899-10-26 00:00:00 TS 16.2000 -78.8000 35 hurdat_atl main 223 204 O_____________ hurdat_atl AL091899 16.2000 -78.8000 TS 35 0 4 347
1899299N16281 1899 43 NA CS NOT_NAMED 1899-10-26 03:00:00 TS 16.4000 -78.8500 main 204 186 P_____________ AL091899 16.4000 -78.8500 TS 35 0 4 347
1899299N16281 1899 43 NA CS NOT_NAMED 1899-10-26 06:00:00 TS 16.6000 -78.9000 35 hurdat_atl main 186 165 O_____________ hurdat_atl AL091899 16.6000 -78.9000 TS 35 0 4 347
1899299N16281 1899 43 NA CS NOT_NAMED 1899-10-26 09:00:00 TS 16.8000 -78.9500 main 169 148 P_____________ AL091899 16.8000 -78.9500 TS 35 0 4 347
1899299N16281 1899 43 NA CS NOT_NAMED 1899-10-26 12:00:00 TS 17.0000 -79.0000 35 hurdat_atl main 148 128 O_____________ hurdat_atl AL091899 17.0000 -79.0000 TS 35 0 4 347
1899299N16281 1899 43 NA CS NOT_NAMED 1899-10-26 15:00:00 TS 17.2000 -79.0500 main 134 116 P_____________ AL091899 17.2000 -79.0500 TS 35 0 4 347
1899299N16281 1899 43 NA CS NOT_NAMED 1899-10-26 18:00:00 TS 17.4000 -79.1000 35 hurdat_atl main 116 99 O_____________ hurdat_atl AL091899 17.4000 -79.1000 TS 35 0 4 347
1899299N16281 1899 43 NA CS NOT_NAMED 1899-10-26 21:00:00 TS 17.6000 -79.1500 main 108 95 P_____________ AL091899 17.6000 -79.1500 TS 37 0 4 347
1899299N16281 1899 43 NA CS NOT_NAMED 1899-10-27 00:00:00 TS 17.8000 -79.2000 40 hurdat_atl main 95 87 O_____________ hurdat_atl AL091899 17.8000 -79.2000 TS 40 0 4 347
1899299N16281 1899 43 NA CS NOT_NAMED 1899-10-27 03:00:00 TS 18.0075 -79.2500 main 97 95 P_____________ AL091899 18.0075 -79.2500 TS 40 0 4 347
1899299N16281 1899 43 NA CS NOT_NAMED 1899-10-27 06:00:00 TS 18.2000 -79.3000 40 hurdat_atl main 95 95 O_____________ hurdat_atl AL091899 18.2000 -79.3000 TS 40 0 4 345
1899299N16281 1899 43 NA CS NOT_NAMED 1899-10-27 09:00:00 TS 18.3575 -79.3500 main 107 107 P_____________ AL091899 18.3575 -79.3500 TS 42 0 3 343
1899299N16281 1899 43 NA CS NOT_NAMED 1899-10-27 12:00:00 TS 18.5000 -79.4000 45 hurdat_atl main 110 110 O_____________ hurdat_atl AL091899 18.5000 -79.4000 TS 45 0 3 341
1899299N16281 1899 43 NA CS NOT_NAMED 1899-10-27 15:00:00 TS 18.6500 -79.4500 main 128 124 P_____________ AL091899 18.6500 -79.4500 TS 47 0 3 343
1899299N16281 1899 43 NA CS NOT_NAMED 1899-10-27 18:00:00 TS 18.8000 -79.5000 50 hurdat_atl main 134 134 O_____________ hurdat_atl AL091899 18.8000 -79.5000 TS 50 0 3 343
1899299N16281 1899 43 NA CS NOT_NAMED 1899-10-27 21:00:00 TS 18.9500 -79.5500 main 152 152 P_____________ AL091899 18.9500 -79.5500 TS 52 0 3 343
1899299N16281 1899 43 NA CS NOT_NAMED 1899-10-28 00:00:00 TS 19.1000 -79.6000 55 hurdat_atl main 157 157 O_____________ hurdat_atl AL091899 19.1000 -79.6000 TS 55 0 3 341
1899299N16281 1899 43 NA CS NOT_NAMED 1899-10-28 03:00:00 TS 19.2275 -79.6500 main 172 172 P_____________ AL091899 19.2275 -79.6500 TS 57 0 3 343
1899299N16281 1899 43 NA CS NOT_NAMED 1899-10-28 06:00:00 TS 19.4000 -79.7000 60 hurdat_atl main 184 184 O_____________ hurdat_atl AL091899 19.4000 -79.7000 TS 60 0 5 346
1899299N16281 1899 43 NA CS NOT_NAMED 1899-10-28 09:00:00 TS 19.6775 -79.7649 main 198 175 P_____________ AL091899 19.6775 -79.7649 TS 62 0 6 351
1899299N16281 1899 43 NA CS NOT_NAMED 1899-10-28 12:00:00 TS 20.0000 -79.8000 65 hurdat_atl main 175 147 O_____________ hurdat_atl AL091899 20.0000 -79.8000 HU 65 1 6 358
1899299N16281 1899 43 NA CS NOT_NAMED 1899-10-28 15:00:00 TS 20.2925 -79.7651 main 147 113 P_____________ AL091899 20.2925 -79.7651 HU 67 1 6 9
1899299N16281 1899 43 NA CS NOT_NAMED 1899-10-28 18:00:00 TS 20.6000 -79.7000 70 hurdat_atl main 113 80 O_____________ hurdat_atl AL091899 20.6000 -79.7000 HU 70 1 7 9
1899299N16281 1899 43 NA CS NOT_NAMED 1899-10-28 21:00:00 TS 20.9350 -79.6500 main 78 35 P_____________ AL091899 20.9350 -79.6500 HU 70 1 7 8
1899299N16281 1899 43 NA CS NOT_NAMED 1899-10-29 00:00:00 TS 21.3000 -79.6000 70 hurdat_atl main 35 0 O_____________ hurdat_atl AL091899 21.3000 -79.6000 HU 70 1 8 8
1899299N16281 1899 43 NA NA NOT_NAMED 1899-10-29 03:00:00 TS 21.6925 -79.5500 main 0 0 P_____________ AL091899 21.6925 -79.5500 HU 70 1 8 7
1899299N16281 1899 43 NA NA NOT_NAMED 1899-10-29 06:00:00 TS 22.1000 -79.5000 70 hurdat_atl main 0 0 O_____________ hurdat_atl AL091899 22.1000 -79.5000 HU 70 1 8 5
1899299N16281 1899 43 NA NA NOT_NAMED 1899-10-29 09:00:00 TS 22.4850 -79.4722 main 0 0 P_____________ AL091899 22.4850 -79.4722 HU 65 1 8 6
1899299N16281 1899 43 NA NA NOT_NAMED 1899-10-29 12:00:00 TS 22.9000 -79.4000 60 hurdat_atl main 30 30 O_____________ hurdat_atl AL091899 22.9000 -79.4000 TS 60 0 9 15
1899299N16281 1899 43 NA NA NOT_NAMED 1899-10-29 15:00:00 TS 23.3401 -79.2224 main 78 78 P_____________ AL091899 23.3401 -79.2224 TS 62 0 11 20
1899299N16281 1899 43 NA NA NOT_NAMED 1899-10-29 18:00:00 TS 23.9000 -79.0000 65 hurdat_atl main 93 30 O_____________ hurdat_atl AL091899 23.9000 -79.0000 HU 65 1 14 16
1899299N16281 1899 43 NA NA NOT_NAMED 1899-10-29 21:00:00 TS 24.6850 -78.7927 main 32 32 P_____________ AL091899 24.6850 -78.7927 HU 70 1 16 13
1899299N16281 1899 43 NA NA NOT_NAMED 1899-10-30 00:00:00 TS 25.5000 -78.6000 75 hurdat_atl main 67 67 O_____________ hurdat_atl AL091899 25.5000 -78.6000 HU 75 1 15 12
1899299N16281 1899 43 NA NA NOT_NAMED 1899-10-30 03:00:00 TS 26.1224 -78.4421 main 115 115 P_____________ AL091899 26.1224 -78.4421 HU 80 1 12 13
1899299N16281 1899 43 NA NA NOT_NAMED 1899-10-30 06:00:00 TS 26.7000 -78.3000 85 hurdat_atl main 169 168 O_____________ hurdat_atl AL091899 26.7000 -78.3000 HU 85 2 13 14
1899299N16281 1899 43 NA NA NOT_NAMED 1899-10-30 09:00:00 TS 27.3425 -78.1057 main 196 196 P_____________ AL091899 27.3425 -78.1057 HU 90 2 13 12
1899299N16281 1899 43 NA NA NOT_NAMED 1899-10-30 12:00:00 TS 28.0000 -78.0000 95 hurdat_atl main 234 234 O_____________ hurdat_atl AL091899 28.0000 -78.0000 HU 95 2 13 1
1899299N16281 1899 43 NA NA NOT_NAMED 1899-10-30 15:00:00 TS 28.6200 -78.1045 main 234 224 P_____________ AL091899 28.6200 -78.1045 HU 95 2 13 349
1899299N16281 1899 43 NA NA NOT_NAMED 1899-10-30 18:00:00 TS 29.3000 -78.3000 95 hurdat_atl main 231 231 O_____________ hurdat_atl AL091899 29.3000 -78.3000 HU 95 2 15 349
1899299N16281 1899 43 NA NA NOT_NAMED 1899-10-30 21:00:00 TS 30.1200 -78.4501 main 257 222 P_____________ AL091899 30.1200 -78.4501 HU 95 2 17 351
1899299N16281 1899 43 NA NA NOT_NAMED 1899-10-31 00:00:00 TS 31.0000 -78.6000 95 hurdat_atl main 222 143 O_____________ hurdat_atl AL091899 31.0000 -78.6000 HU 95 2 17 351
1899299N16281 1899 43 NA NA NOT_NAMED 1899-10-31 03:00:00 TS 31.8398 -78.7603 main 143 57 P_____________ AL091899 31.8398 -78.7603 HU 95 2 17 352
1899299N16281 1899 43 NA NA NOT_NAMED 1899-10-31 06:00:00 TS 32.7000 -78.9000 95 hurdat_atl main 57 9 O_____________ hurdat_atl AL091899 32.7000 -78.9000 HU 95 2 18 354
1899299N16281 1899 43 NA NA NOT_NAMED 1899-10-31 09:00:00 TS 33.6000 -79.0000 95 hurdat_atl main 0 0 O_____________ hurdat_atl AL091899 33.6000 -79.0000 L HU 95 2 18 357
1899299N16281 1899 43 NA NA NOT_NAMED 1899-10-31 12:00:00 TS 34.5000 -79.0000 75 hurdat_atl main 0 0 O_____________ hurdat_atl AL091899 34.5000 -79.0000 HU 75 1 18 7
1899299N16281 1899 43 NA NA NOT_NAMED 1899-10-31 15:00:00 TS 35.3464 -78.7551 main 0 0 P_____________ AL091899 35.3464 -78.7551 HU 65 1 18 19
1899299N16281 1899 43 NA NA NOT_NAMED 1899-10-31 18:00:00 TS 36.2000 -78.3000 55 hurdat_atl main 0 0 O_____________ hurdat_atl AL091899 36.2000 -78.3000 TS 55 0 20 25
1899299N16281 1899 43 NA NA NOT_NAMED 1899-10-31 21:00:00 TS 37.1276 -77.7446 main 0 0 P_____________ AL091899 37.1276 -77.7446 TS 52 0 21 27
1899299N16281 1899 43 NA NA NOT_NAMED 1899-11-01 00:00:00 ET 38.1000 -77.1000 50 hurdat_atl main 0 0 O_____________ hurdat_atl AL091899 38.1000 -77.1000 EX 50 -4 22 27
1899299N16281 1899 43 NA NA NOT_NAMED 1899-11-01 03:00:00 ET 39.0839 -76.4989 main 0 0 P_____________ AL091899 39.0839 -76.4989 EX 50 -4 22 27
1899299N16281 1899 43 NA NA NOT_NAMED 1899-11-01 06:00:00 ET 40.1000 -75.8000 50 hurdat_atl main 0 0 O_____________ hurdat_atl AL091899 40.1000 -75.8000 EX 50 -4 24 30
1899299N16281 1899 43 NA NA NOT_NAMED 1899-11-01 09:00:00 ET 41.1796 -74.9176 main 0 0 P_____________ AL091899 41.1796 -74.9176 EX 47 -4 25 34
1899299N16281 1899 43 NA NA NOT_NAMED 1899-11-01 12:00:00 ET 42.2000 -73.9000 45 hurdat_atl main 0 0 O_____________ hurdat_atl AL091899 42.2000 -73.9000 EX 45 -4 24 39
1899299N16281 1899 43 NA NA NOT_NAMED 1899-11-01 15:00:00 ET 43.0431 -72.8624 main 0 0 P_____________ AL091899 43.0431 -72.8624 EX 45 -4 23 45
1899299N16281 1899 43 NA NA NOT_NAMED 1899-11-01 18:00:00 ET 43.8000 -71.7000 45 hurdat_atl main 0 0 O_____________ hurdat_atl AL091899 43.8000 -71.7000 EX 45 -4 23 49
1899299N16281 1899 43 NA NA NOT_NAMED 1899-11-01 21:00:00 ET 44.5703 -70.3942 main 0 0 P_____________ AL091899 44.5703 -70.3942 EX 42 -4 25 53
1899299N16281 1899 43 NA NA NOT_NAMED 1899-11-02 00:00:00 ET 45.3000 -68.9000 40 hurdat_atl main 0 0 O_____________ hurdat_atl AL091899 45.3000 -68.9000 EX 40 -4 26 57
1899299N16281 1899 43 NA NA NOT_NAMED 1899-11-02 03:00:00 ET 45.9845 -67.2518 main 0 0 P_____________ AL091899 45.9845 -67.2518 EX 40 -4 28 62
1899299N16281 1899 43 NA NA NOT_NAMED 1899-11-02 06:00:00 ET 46.6000 -65.4000 40 hurdat_atl main 0 0 O_____________ hurdat_atl AL091899 46.6000 -65.4000 EX 40 -4 29 66
1899299N16281 1899 43 NA NA NOT_NAMED 1899-11-02 09:00:00 ET 47.1315 -63.4293 main 46 46 P_____________ AL091899 47.1315 -63.4293 EX 40 -4 30 71
1899299N16281 1899 43 NA NA NOT_NAMED 1899-11-02 12:00:00 ET 47.6000 -61.2000 40 hurdat_atl main 86 0 O_____________ hurdat_atl AL091899 47.6000 -61.2000 EX 40 -4 33 74
1899299N16281 1899 43 NA NA NOT_NAMED 1899-11-02 15:00:00 ET 48.0318 -58.6969 main 0 0 P_____________ AL091899 48.0318 -58.6969 EX 40 -4 36 77
1899299N16281 1899 43 NA NA NOT_NAMED 1899-11-02 18:00:00 ET 48.4000 -55.9000 40 hurdat_atl main 0 0 O_____________ hurdat_atl AL091899 48.4000 -55.9000 EX 40 -4 39 81
1899299N16281 1899 43 NA NA NOT_NAMED 1899-11-02 21:00:00 ET 48.6619 -52.8596 main 18 18 P_____________ AL091899 48.6619 -52.8596 EX 42 -4 41 83
1899299N16281 1899 43 NA NA NOT_NAMED 1899-11-03 00:00:00 ET 48.9000 -49.7000 45 hurdat_atl main 244 244 O_____________ hurdat_atl AL091899 48.9000 -49.7000 EX 45 -4 42 83
1899299N16281 1899 43 NA NA NOT_NAMED 1899-11-03 03:00:00 ET 49.1734 -46.5442 main 476 476 P_____________ AL091899 49.1734 -46.5442 EX 47 -4 41 82
1899299N16281 1899 43 NA NA NOT_NAMED 1899-11-03 06:00:00 ET 49.5000 -43.5000 50 hurdat_atl main 695 695 O_____________ hurdat_atl AL091899 49.5000 -43.5000 EX 50 -4 39 80
1899299N16281 1899 43 NA NA NOT_NAMED 1899-11-03 09:00:00 ET 49.8632 -40.6421 main 907 907 P_____________ AL091899 49.8632 -40.6421 EX 50 -4 36 77
1899299N16281 1899 43 NA NA NOT_NAMED 1899-11-03 12:00:00 ET 50.3000 -38.0000 50 hurdat_atl main 1095 1095 O_____________ hurdat_atl AL091899 50.3000 -38.0000 EX 50 -4 34 74
1899299N16281 1899 43 NA NA NOT_NAMED 1899-11-03 15:00:00 ET 50.7697 -35.5354 main 1133 1133 P_____________ AL091899 50.7697 -35.5354 EX 50 -4 32 72
1899299N16281 1899 43 NA NA NOT_NAMED 1899-11-03 18:00:00 ET 51.3000 -33.2000 50 hurdat_atl main 1150 1150 O_____________ hurdat_atl AL091899 51.3000 -33.2000 EX 50 -4 31 70
1899299N16281 1899 43 NA NA NOT_NAMED 1899-11-03 21:00:00 ET 51.8316 -30.8080 main 1189 1184 P_____________ AL091899 51.8316 -30.8080 EX 47 -4 31 69
1899299N16281 1899 43 NA NA NOT_NAMED 1899-11-04 00:00:00 ET 52.4000 -28.5000 45 hurdat_atl main 1216 1072 O_____________ hurdat_atl AL091899 52.4000 -28.5000 EX 45 -4 30 68
1899299N16281 1899 43 NA NA NOT_NAMED 1899-11-04 03:00:00 ET 52.9731 -26.2907 main 1065 926 P_____________ AL091899 52.9731 -26.2907 EX 42 -4 28 65
1899299N16281 1899 43 NA NA NOT_NAMED 1899-11-04 06:00:00 ET 53.6000 -24.2000 40 hurdat_atl main 919 782 O_____________ hurdat_atl AL091899 53.6000 -24.2000 EX 40 -4 28 64
1899299N16281 1899 43 NA NA NOT_NAMED 1899-11-04 09:00:00 ET 54.1800 -22.0680 main 775 658 P_____________ AL091899 54.1800 -22.0680 EX 40 -4 27 59
1899299N16281 1899 43 NA NA NOT_NAMED 1899-11-04 12:00:00 ET 55.0000 -20.2000 40 hurdat_atl main 652 591 O_____________ hurdat_atl AL091899 55.0000 -20.2000 EX 40 -4 28 42
1899299N16281 1899 43 NA NA NOT_NAMED 1899-11-04 15:00:00 ET 56.2651 -18.7502 main 595 585 P_____________ AL091899 56.2651 -18.7502 EX 40 -4 32 28
1899299N16281 1899 43 NA NA NOT_NAMED 1899-11-04 18:00:00 ET 57.8000 -17.5000 40 hurdat_atl main 606 O_____________ hurdat_atl AL091899 57.8000 -17.5000 EX 40 -4 33 23

IBTrACS Databaseについて

本データベースは、米国NOAAが公開する1842年以降の世界の熱帯低気圧のベストトラックデータアーカイブInternational Best Track Archive for Climate Stewardship (IBTrACS)を、ウェブで閲覧しやすい形式に変換したものです。

最終更新日:2021-10-08